Kathryn, ND (58049)

12:37 PM CST on February 14, 2016 (GMT -0600)
Valley City | | Change Station
CLOSE
Current Station
Airport
Location: Valley City,
Elevation: 1401 ft
Nearby Weather Stations

Elev 1401 ft 46.94 °N, 98.02 °W | Updated 22 minutes ago

Overcast
Overcast
16 °F
Feels Like 1 °F
N
15
Wind Variable Wind from SSW

Today
High -- | Low -- °F
--% Chance of Precip.
Yesterday
High -- | Low -- °F
Precip. -- in
Pressure 29.74 in
Visibility 8.0 miles
Clouds Scattered Clouds 300 ft
Overcast 900 ft
Windchill 1 °F
Dew Point 16 °F
Humidity 100%
Rainfall 0.62 in
Snow Depth Not available.
7:38 AM 5:54 PM
Waxing Crescent, 44% visible
METAR KBAC 141815Z AUTO 20013KT 8SM SCT003 OVC009 M09/M09 A2974 RMK AO2
Pressure 29.74 in
Visibility 8.0 miles
Clouds Scattered Clouds 300 ft
Overcast 900 ft
Windchill 1 °F
Dew Point 16 °F
Humidity 100%
Rainfall 0.62 in
Snow Depth Not available.
7:38 AM 5:54 PM
Waxing Crescent, 44% visible
METAR KBAC 141815Z AUTO 20013KT 8SM SCT003 OVC009 M09/M09 A2974 RMK AO2

10-Day Weather Forecast

Almanac

Astronomy

Feb. 14, 2016 Rise Set
Actual Time
Civil Twilight
Nautical Twilight
Astronomical Twilight
Moon
Length of Visible Light
Length of Day
Tomorrow will be .
, % of the Moon is Illuminated

Today's Extremes

State Highs State Lows

Community

WunderPhotos

Upload Photos

1,892,868 photos uploaded!

WunderBlog® & News

Nearby

Air Quality

  Air Quality AQ Index Pollutant
Not available.

Snow Depth

Station Depth Elevation

Earthquake Activity

City Distance Mag. Time & Date
Minimum magnitude displayed is 2.5.

Coastal Water Temperatures

Place Temperature

Stations

Nearby Weather Stations

Station Location Temp. Windchill Dew Point Humidity Wind Precip. Elev Updated Type
                   

Watches & Warnings

There are currently no watches in effect.